NCAR-RAP Real-Time Weather Data

Output produced by METARs form (25 March 2019  02:17 UTC)
found at http://weather.rap.ucar.edu/surface/
 
Conditions at: KSPI observed 25 March 2019  01:52 UTC
Temperature: 10.6°C (51°F)
Dewpoint: 10.6°C (51°F) [RH = 100%]
Pressure (altimeter): 29.98 inches Hg (1015.3 mb)
[Sea-level pressure: 1015.5 mb]
Winds: from the NE (40 degrees) at 8 MPH (7 knots; 3.6 m/s)
Visibility: 6 miles (10 km)
Ceiling: 3900 feet AGL
Clouds: few clouds at 2000 feet AGL
scattered clouds at 3000 feet AGL
broken clouds at 3900 feet AGL
Present Weather: BR  (mist)
KSPI 250152Z 04007KT 6SM BR FEW020 SCT030 BKN039 11/11 A2998 RMK AO2 LTG DSNT S RAE21 SLP155 P0002 T01060106